sensor_id;sensor_type;location;lat;lon;timestamp;P1;durP1;ratioP1;P2;durP2;ratioP2
42200;SDS011;27869;51.442;7.540;2023-05-10T00:01:28;0.98;;;0.52;;
42200;SDS011;27869;51.442;7.540;2023-05-10T00:03:55;1.52;;;0.40;;
42200;SDS011;27869;51.442;7.540;2023-05-10T00:06:22;0.90;;;0.52;;
42200;SDS011;27869;51.442;7.540;2023-05-10T00:08:49;1.13;;;0.40;;
42200;SDS011;27869;51.442;7.540;2023-05-10T00:11:17;1.70;;;0.63;;
42200;SDS011;27869;51.442;7.540;2023-05-10T00:13:45;0.57;;;0.40;;
42200;SDS011;27869;51.442;7.540;2023-05-10T00:16:12;0.75;;;0.60;;
42200;SDS011;27869;51.442;7.540;2023-05-10T00:18:39;0.82;;;0.40;;
42200;SDS011;27869;51.442;7.540;2023-05-10T00:21:06;1.42;;;0.40;;
42200;SDS011;27869;51.442;7.540;2023-05-10T00:23:33;1.83;;;0.60;;
42200;SDS011;27869;51.442;7.540;2023-05-10T00:25:59;2.25;;;0.45;;
42200;SDS011;27869;51.442;7.540;2023-05-10T00:28:28;1.50;;;0.70;;
42200;SDS011;27869;51.442;7.540;2023-05-10T00:30:55;3.10;;;0.65;;
42200;SDS011;27869;51.442;7.540;2023-05-10T00:33:22;1.92;;;0.60;;
42200;SDS011;27869;51.442;7.540;2023-05-10T00:35:49;2.97;;;0.70;;
42200;SDS011;27869;51.442;7.540;2023-05-10T00:38:16;2.35;;;0.70;;
42200;SDS011;27869;51.442;7.540;2023-05-10T00:40:42;1.27;;;0.40;;
42200;SDS011;27869;51.442;7.540;2023-05-10T00:43:09;2.22;;;0.57;;
42200;SDS011;27869;51.442;7.540;2023-05-10T00:45:38;1.00;;;0.50;;
42200;SDS011;27869;51.442;7.540;2023-05-10T00:48:07;0.50;;;0.40;;
42200;SDS011;27869;51.442;7.540;2023-05-10T00:50:34;1.05;;;0.60;;
42200;SDS011;27869;51.442;7.540;2023-05-10T00:53:01;1.50;;;0.60;;
42200;SDS011;27869;51.442;7.540;2023-05-10T00:55:28;1.95;;;0.90;;
42200;SDS011;27869;51.442;7.540;2023-05-10T00:57:56;1.45;;;0.70;;
42200;SDS011;27869;51.442;7.540;2023-05-10T01:00:23;3.22;;;0.82;;
42200;SDS011;27869;51.442;7.540;2023-05-10T01:02:54;1.23;;;0.77;;
42200;SDS011;27869;51.442;7.540;2023-05-10T01:05:22;2.83;;;0.70;;
42200;SDS011;27869;51.442;7.540;2023-05-10T01:07:48;2.40;;;0.90;;
42200;SDS011;27869;51.442;7.540;2023-05-10T01:10:15;1.40;;;0.75;;
42200;SDS011;27869;51.442;7.540;2023-05-10T01:12:43;2.58;;;1.00;;
42200;SDS011;27869;51.442;7.540;2023-05-10T01:17:40;2.85;;;0.95;;
42200;SDS011;27869;51.442;7.540;2023-05-10T01:20:12;3.38;;;1.00;;
42200;SDS011;27869;51.442;7.540;2023-05-10T01:22:44;4.95;;;1.65;;
42200;SDS011;27869;51.442;7.540;2023-05-10T01:25:50;6.22;;;1.95;;
42200;SDS011;27869;51.442;7.540;2023-05-10T01:34:45;7.40;;;2.10;;
42200;SDS011;27869;51.442;7.540;2023-05-10T01:37:21;6.90;;;1.73;;
42200;SDS011;27869;51.442;7.540;2023-05-10T01:39:58;6.32;;;1.65;;
42200;SDS011;27869;51.442;7.540;2023-05-10T01:42:29;5.93;;;1.83;;
42200;SDS011;27869;51.442;7.540;2023-05-10T01:45:06;7.93;;;2.17;;
42200;SDS011;27869;51.442;7.540;2023-05-10T01:47:38;5.78;;;1.80;;
42200;SDS011;27869;51.442;7.540;2023-05-10T01:50:10;5.70;;;1.75;;
42200;SDS011;27869;51.442;7.540;2023-05-10T01:52:44;7.35;;;2.10;;
42200;SDS011;27869;51.442;7.540;2023-05-10T01:55:15;7.47;;;2.20;;
42200;SDS011;27869;51.442;7.540;2023-05-10T01:57:44;6.82;;;2.53;;
42200;SDS011;27869;51.442;7.540;2023-05-10T02:00:14;6.68;;;2.05;;
42200;SDS011;27869;51.442;7.540;2023-05-10T02:02:44;8.38;;;2.10;;
42200;SDS011;27869;51.442;7.540;2023-05-10T02:05:14;6.07;;;1.90;;
42200;SDS011;27869;51.442;7.540;2023-05-10T02:07:42;7.72;;;2.20;;
42200;SDS011;27869;51.442;7.540;2023-05-10T02:10:10;7.55;;;1.83;;
42200;SDS011;27869;51.442;7.540;2023-05-10T02:12:39;6.63;;;1.95;;
42200;SDS011;27869;51.442;7.540;2023-05-10T02:15:08;5.90;;;2.00;;
42200;SDS011;27869;51.442;7.540;2023-05-10T02:17:38;7.50;;;2.45;;
42200;SDS011;27869;51.442;7.540;2023-05-10T02:20:06;7.50;;;2.17;;
42200;SDS011;27869;51.442;7.540;2023-05-10T02:22:36;7.05;;;2.42;;
42200;SDS011;27869;51.442;7.540;2023-05-10T02:27:31;7.35;;;2.20;;
42200;SDS011;27869;51.442;7.540;2023-05-10T02:29:58;8.18;;;2.20;;
42200;SDS011;27869;51.442;7.540;2023-05-10T02:32:26;7.05;;;2.10;;
42200;SDS011;27869;51.442;7.540;2023-05-10T02:34:53;7.10;;;2.20;;
42200;SDS011;27869;51.442;7.540;2023-05-10T02:37:21;7.20;;;2.30;;
42200;SDS011;27869;51.442;7.540;2023-05-10T02:39:52;6.60;;;1.90;;
42200;SDS011;27869;51.442;7.540;2023-05-10T02:42:22;7.20;;;2.22;;
42200;SDS011;27869;51.442;7.540;2023-05-10T02:44:52;6.22;;;2.10;;
42200;SDS011;27869;51.442;7.540;2023-05-10T02:47:22;6.78;;;1.90;;
42200;SDS011;27869;51.442;7.540;2023-05-10T02:49:49;6.45;;;1.92;;
42200;SDS011;27869;51.442;7.540;2023-05-10T02:52:22;5.10;;;1.70;;
42200;SDS011;27869;51.442;7.540;2023-05-10T02:54:54;5.10;;;1.55;;
42200;SDS011;27869;51.442;7.540;2023-05-10T02:57:24;4.60;;;1.40;;
42200;SDS011;27869;51.442;7.540;2023-05-10T02:59:52;2.30;;;1.10;;
42200;SDS011;27869;51.442;7.540;2023-05-10T03:02:20;4.70;;;1.20;;
42200;SDS011;27869;51.442;7.540;2023-05-10T03:04:47;5.32;;;1.00;;
42200;SDS011;27869;51.442;7.540;2023-05-10T03:07:13;3.53;;;0.88;;
42200;SDS011;27869;51.442;7.540;2023-05-10T03:09:41;2.50;;;0.88;;
42200;SDS011;27869;51.442;7.540;2023-05-10T03:12:11;2.15;;;0.70;;
42200;SDS011;27869;51.442;7.540;2023-05-10T03:14:45;2.15;;;0.90;;
42200;SDS011;27869;51.442;7.540;2023-05-10T03:17:23;1.25;;;0.60;;
42200;SDS011;27869;51.442;7.540;2023-05-10T03:19:56;1.85;;;0.70;;
42200;SDS011;27869;51.442;7.540;2023-05-10T03:22:25;6.95;;;0.95;;
42200;SDS011;27869;51.442;7.540;2023-05-10T03:24:56;1.65;;;0.75;;
42200;SDS011;27869;51.442;7.540;2023-05-10T03:27:27;3.80;;;1.00;;
42200;SDS011;27869;51.442;7.540;2023-05-10T03:29:55;1.35;;;0.60;;
42200;SDS011;27869;51.442;7.540;2023-05-10T03:32:23;2.35;;;0.60;;
42200;SDS011;27869;51.442;7.540;2023-05-10T03:34:52;1.60;;;0.70;;
42200;SDS011;27869;51.442;7.540;2023-05-10T03:37:18;2.40;;;0.80;;
42200;SDS011;27869;51.442;7.540;2023-05-10T03:39:45;3.08;;;0.93;;
42200;SDS011;27869;51.442;7.540;2023-05-10T03:42:12;3.67;;;1.00;;
42200;SDS011;27869;51.442;7.540;2023-05-10T03:44:40;3.78;;;1.30;;
42200;SDS011;27869;51.442;7.540;2023-05-10T03:47:07;7.82;;;1.33;;
42200;SDS011;27869;51.442;7.540;2023-05-10T03:49:34;6.50;;;1.20;;
42200;SDS011;27869;51.442;7.540;2023-05-10T03:52:01;6.68;;;1.27;;
42200;SDS011;27869;51.442;7.540;2023-05-10T03:54:28;5.93;;;1.90;;
42200;SDS011;27869;51.442;7.540;2023-05-10T03:56:55;8.32;;;2.25;;
42200;SDS011;27869;51.442;7.540;2023-05-10T03:59:22;10.55;;;3.20;;
42200;SDS011;27869;51.442;7.540;2023-05-10T04:01:50;11.13;;;3.85;;
42200;SDS011;27869;51.442;7.540;2023-05-10T04:04:17;12.07;;;4.03;;
42200;SDS011;27869;51.442;7.540;2023-05-10T04:06:45;12.85;;;3.95;;
42200;SDS011;27869;51.442;7.540;2023-05-10T04:09:12;11.55;;;3.72;;
42200;SDS011;27869;51.442;7.540;2023-05-10T04:11:39;12.63;;;4.20;;
42200;SDS011;27869;51.442;7.540;2023-05-10T04:14:06;12.52;;;4.28;;
42200;SDS011;27869;51.442;7.540;2023-05-10T04:16:33;11.43;;;4.07;;
42200;SDS011;27869;51.442;7.540;2023-05-10T04:19:01;13.23;;;4.35;;
42200;SDS011;27869;51.442;7.540;2023-05-10T04:21:28;11.55;;;4.13;;
42200;SDS011;27869;51.442;7.540;2023-05-10T04:23:55;12.20;;;4.20;;
42200;SDS011;27869;51.442;7.540;2023-05-10T04:26:22;10.95;;;4.18;;
42200;SDS011;27869;51.442;7.540;2023-05-10T04:28:50;11.90;;;4.35;;
42200;SDS011;27869;51.442;7.540;2023-05-10T04:31:17;12.82;;;4.90;;
42200;SDS011;27869;51.442;7.540;2023-05-10T04:33:44;11.52;;;4.45;;
42200;SDS011;27869;51.442;7.540;2023-05-10T04:36:12;12.35;;;4.43;;
42200;SDS011;27869;51.442;7.540;2023-05-10T04:38:39;13.23;;;4.20;;
42200;SDS011;27869;51.442;7.540;2023-05-10T04:41:06;11.80;;;4.30;;
42200;SDS011;27869;51.442;7.540;2023-05-10T04:43:33;11.85;;;3.90;;
42200;SDS011;27869;51.442;7.540;2023-05-10T04:46:01;12.77;;;4.70;;
42200;SDS011;27869;51.442;7.540;2023-05-10T04:48:28;12.00;;;4.18;;
42200;SDS011;27869;51.442;7.540;2023-05-10T04:50:55;11.57;;;4.07;;
42200;SDS011;27869;51.442;7.540;2023-05-10T04:53:23;11.55;;;3.80;;
42200;SDS011;27869;51.442;7.540;2023-05-10T04:55:50;12.93;;;4.00;;
42200;SDS011;27869;51.442;7.540;2023-05-10T04:58:17;12.02;;;3.97;;
42200;SDS011;27869;51.442;7.540;2023-05-10T05:00:44;12.40;;;4.00;;
42200;SDS011;27869;51.442;7.540;2023-05-10T05:03:11;11.82;;;3.83;;
42200;SDS011;27869;51.442;7.540;2023-05-10T05:05:37;13.20;;;4.05;;
42200;SDS011;27869;51.442;7.540;2023-05-10T05:08:04;12.63;;;4.25;;
42200;SDS011;27869;51.442;7.540;2023-05-10T05:10:33;12.40;;;4.50;;
42200;SDS011;27869;51.442;7.540;2023-05-10T05:12:59;14.60;;;5.15;;
42200;SDS011;27869;51.442;7.540;2023-05-10T05:15:26;12.23;;;4.88;;
42200;SDS011;27869;51.442;7.540;2023-05-10T05:17:53;12.75;;;5.03;;
42200;SDS011;27869;51.442;7.540;2023-05-10T05:20:20;12.93;;;5.43;;
42200;SDS011;27869;51.442;7.540;2023-05-10T05:22:47;12.85;;;5.30;;
42200;SDS011;27869;51.442;7.540;2023-05-10T05:25:14;13.80;;;5.85;;
42200;SDS011;27869;51.442;7.540;2023-05-10T05:27:43;17.13;;;7.30;;
42200;SDS011;27869;51.442;7.540;2023-05-10T05:30:10;18.13;;;7.07;;
42200;SDS011;27869;51.442;7.540;2023-05-10T05:32:37;15.55;;;7.63;;
42200;SDS011;27869;51.442;7.540;2023-05-10T05:35:04;21.33;;;7.65;;
42200;SDS011;27869;51.442;7.540;2023-05-10T05:37:32;19.65;;;8.43;;
42200;SDS011;27869;51.442;7.540;2023-05-10T05:39:59;19.02;;;8.73;;
42200;SDS011;27869;51.442;7.540;2023-05-10T05:42:27;17.27;;;8.45;;
42200;SDS011;27869;51.442;7.540;2023-05-10T05:44:55;19.67;;;9.05;;
42200;SDS011;27869;51.442;7.540;2023-05-10T05:47:22;19.27;;;8.70;;
42200;SDS011;27869;51.442;7.540;2023-05-10T05:49:49;20.08;;;8.43;;
42200;SDS011;27869;51.442;7.540;2023-05-10T05:52:16;18.70;;;9.27;;
42200;SDS011;27869;51.442;7.540;2023-05-10T05:54:43;21.90;;;8.73;;
42200;SDS011;27869;51.442;7.540;2023-05-10T05:57:10;21.35;;;8.77;;
42200;SDS011;27869;51.442;7.540;2023-05-10T05:59:37;23.33;;;9.70;;
42200;SDS011;27869;51.442;7.540;2023-05-10T06:02:08;28.15;;;9.20;;
42200;SDS011;27869;51.442;7.540;2023-05-10T06:04:35;19.38;;;9.15;;
42200;SDS011;27869;51.442;7.540;2023-05-10T06:07:02;20.90;;;9.98;;
42200;SDS011;27869;51.442;7.540;2023-05-10T06:09:29;22.30;;;9.82;;
42200;SDS011;27869;51.442;7.540;2023-05-10T06:11:56;19.80;;;9.65;;
42200;SDS011;27869;51.442;7.540;2023-05-10T06:14:23;20.25;;;10.00;;
42200;SDS011;27869;51.442;7.540;2023-05-10T06:16:49;21.63;;;10.10;;
42200;SDS011;27869;51.442;7.540;2023-05-10T06:19:18;20.13;;;9.93;;
42200;SDS011;27869;51.442;7.540;2023-05-10T06:21:45;21.92;;;10.40;;
42200;SDS011;27869;51.442;7.540;2023-05-10T06:24:11;24.42;;;10.68;;
42200;SDS011;27869;51.442;7.540;2023-05-10T06:26:38;25.83;;;9.93;;
42200;SDS011;27869;51.442;7.540;2023-05-10T06:29:05;22.63;;;11.18;;
42200;SDS011;27869;51.442;7.540;2023-05-10T06:31:32;23.95;;;11.18;;
42200;SDS011;27869;51.442;7.540;2023-05-10T06:33:59;25.52;;;10.73;;
42200;SDS011;27869;51.442;7.540;2023-05-10T06:36:27;25.58;;;10.40;;
42200;SDS011;27869;51.442;7.540;2023-05-10T06:38:54;23.52;;;10.82;;
42200;SDS011;27869;51.442;7.540;2023-05-10T06:41:21;23.98;;;11.10;;
42200;SDS011;27869;51.442;7.540;2023-05-10T06:43:48;23.25;;;10.70;;
42200;SDS011;27869;51.442;7.540;2023-05-10T06:46:15;23.73;;;11.20;;
42200;SDS011;27869;51.442;7.540;2023-05-10T06:48:42;23.08;;;10.57;;
42200;SDS011;27869;51.442;7.540;2023-05-10T06:51:09;23.83;;;10.75;;
42200;SDS011;27869;51.442;7.540;2023-05-10T06:53:38;26.48;;;10.60;;
42200;SDS011;27869;51.442;7.540;2023-05-10T06:56:05;23.95;;;11.02;;
42200;SDS011;27869;51.442;7.540;2023-05-10T06:58:32;26.50;;;11.55;;
42200;SDS011;27869;51.442;7.540;2023-05-10T07:01:01;24.48;;;11.52;;
42200;SDS011;27869;51.442;7.540;2023-05-10T07:03:30;25.67;;;12.10;;
42200;SDS011;27869;51.442;7.540;2023-05-10T07:05:59;24.35;;;11.15;;
42200;SDS011;27869;51.442;7.540;2023-05-10T07:08:28;22.35;;;10.73;;
42200;SDS011;27869;51.442;7.540;2023-05-10T07:11:00;23.30;;;11.20;;
42200;SDS011;27869;51.442;7.540;2023-05-10T07:13:28;24.52;;;11.20;;
42200;SDS011;27869;51.442;7.540;2023-05-10T07:15:56;25.15;;;12.38;;
42200;SDS011;27869;51.442;7.540;2023-05-10T07:18:23;26.08;;;13.18;;
42200;SDS011;27869;51.442;7.540;2023-05-10T07:20:50;26.88;;;11.43;;
42200;SDS011;27869;51.442;7.540;2023-05-10T07:23:17;25.77;;;12.18;;
42200;SDS011;27869;51.442;7.540;2023-05-10T07:25:44;23.83;;;11.02;;
42200;SDS011;27869;51.442;7.540;2023-05-10T07:28:13;24.35;;;11.18;;
42200;SDS011;27869;51.442;7.540;2023-05-10T07:30:41;24.02;;;11.63;;
42200;SDS011;27869;51.442;7.540;2023-05-10T07:33:08;25.73;;;11.35;;
42200;SDS011;27869;51.442;7.540;2023-05-10T07:35:36;24.13;;;10.93;;
42200;SDS011;27869;51.442;7.540;2023-05-10T07:38:03;24.83;;;12.13;;
42200;SDS011;27869;51.442;7.540;2023-05-10T07:40:30;20.90;;;10.02;;
42200;SDS011;27869;51.442;7.540;2023-05-10T07:42:57;20.65;;;10.07;;
42200;SDS011;27869;51.442;7.540;2023-05-10T07:45:26;21.20;;;10.25;;
42200;SDS011;27869;51.442;7.540;2023-05-10T07:47:53;21.25;;;9.52;;
42200;SDS011;27869;51.442;7.540;2023-05-10T07:50:20;19.60;;;8.70;;
42200;SDS011;27869;51.442;7.540;2023-05-10T07:52:47;20.30;;;8.95;;
42200;SDS011;27869;51.442;7.540;2023-05-10T07:55:14;20.45;;;9.13;;
42200;SDS011;27869;51.442;7.540;2023-05-10T07:57:41;20.02;;;8.57;;
42200;SDS011;27869;51.442;7.540;2023-05-10T08:00:08;18.10;;;8.23;;
42200;SDS011;27869;51.442;7.540;2023-05-10T08:02:39;18.77;;;8.55;;
42200;SDS011;27869;51.442;7.540;2023-05-10T08:05:07;19.40;;;8.90;;
42200;SDS011;27869;51.442;7.540;2023-05-10T08:07:34;21.25;;;9.35;;
42200;SDS011;27869;51.442;7.540;2023-05-10T08:10:01;19.83;;;9.10;;
42200;SDS011;27869;51.442;7.540;2023-05-10T08:12:28;19.35;;;9.25;;
42200;SDS011;27869;51.442;7.540;2023-05-10T08:14:55;19.05;;;8.32;;
42200;SDS011;27869;51.442;7.540;2023-05-10T08:17:22;21.15;;;8.88;;
42200;SDS011;27869;51.442;7.540;2023-05-10T08:19:51;20.67;;;7.82;;
42200;SDS011;27869;51.442;7.540;2023-05-10T08:22:18;17.17;;;7.45;;
42200;SDS011;27869;51.442;7.540;2023-05-10T08:24:44;17.95;;;7.22;;
42200;SDS011;27869;51.442;7.540;2023-05-10T08:27:11;17.80;;;7.80;;
42200;SDS011;27869;51.442;7.540;2023-05-10T08:29:38;16.67;;;6.07;;
42200;SDS011;27869;51.442;7.540;2023-05-10T08:32:05;15.13;;;5.68;;
42200;SDS011;27869;51.442;7.540;2023-05-10T08:34:32;14.52;;;5.43;;
42200;SDS011;27869;51.442;7.540;2023-05-10T08:37:00;16.10;;;5.63;;
42200;SDS011;27869;51.442;7.540;2023-05-10T08:39:27;14.00;;;5.38;;
42200;SDS011;27869;51.442;7.540;2023-05-10T08:41:54;14.48;;;5.07;;
42200;SDS011;27869;51.442;7.540;2023-05-10T08:44:25;13.68;;;5.93;;
42200;SDS011;27869;51.442;7.540;2023-05-10T08:46:53;14.60;;;5.07;;
42200;SDS011;27869;51.442;7.540;2023-05-10T08:49:21;13.55;;;4.90;;
42200;SDS011;27869;51.442;7.540;2023-05-10T08:51:50;15.68;;;4.60;;
42200;SDS011;27869;51.442;7.540;2023-05-10T08:54:22;14.57;;;5.30;;
42200;SDS011;27869;51.442;7.540;2023-05-10T08:56:50;15.90;;;5.93;;
42200;SDS011;27869;51.442;7.540;2023-05-10T08:59:18;16.45;;;6.00;;
42200;SDS011;27869;51.442;7.540;2023-05-10T09:01:45;15.88;;;5.65;;
42200;SDS011;27869;51.442;7.540;2023-05-10T09:04:14;15.35;;;6.05;;
42200;SDS011;27869;51.442;7.540;2023-05-10T09:06:41;14.55;;;5.70;;
42200;SDS011;27869;51.442;7.540;2023-05-10T09:09:08;14.85;;;4.45;;
42200;SDS011;27869;51.442;7.540;2023-05-10T09:11:36;17.67;;;5.32;;
42200;SDS011;27869;51.442;7.540;2023-05-10T09:14:03;14.98;;;5.50;;
42200;SDS011;27869;51.442;7.540;2023-05-10T09:16:31;13.35;;;4.97;;
42200;SDS011;27869;51.442;7.540;2023-05-10T09:18:57;13.32;;;5.10;;
42200;SDS011;27869;51.442;7.540;2023-05-10T09:21:24;11.80;;;3.63;;
42200;SDS011;27869;51.442;7.540;2023-05-10T09:23:52;14.57;;;4.07;;
42200;SDS011;27869;51.442;7.540;2023-05-10T09:26:21;12.90;;;4.28;;
42200;SDS011;27869;51.442;7.540;2023-05-10T09:28:51;14.98;;;4.20;;
42200;SDS011;27869;51.442;7.540;2023-05-10T09:31:19;14.43;;;4.45;;
42200;SDS011;27869;51.442;7.540;2023-05-10T09:33:46;13.73;;;4.10;;
42200;SDS011;27869;51.442;7.540;2023-05-10T09:36:14;12.75;;;3.95;;
42200;SDS011;27869;51.442;7.540;2023-05-10T09:38:45;14.10;;;4.38;;
42200;SDS011;27869;51.442;7.540;2023-05-10T09:41:16;15.75;;;5.20;;
42200;SDS011;27869;51.442;7.540;2023-05-10T09:43:44;14.30;;;5.22;;
42200;SDS011;27869;51.442;7.540;2023-05-10T09:46:12;14.02;;;4.95;;
42200;SDS011;27869;51.442;7.540;2023-05-10T09:48:43;13.20;;;4.65;;
42200;SDS011;27869;51.442;7.540;2023-05-10T09:51:17;11.52;;;3.67;;
42200;SDS011;27869;51.442;7.540;2023-05-10T09:53:45;13.05;;;3.40;;
42200;SDS011;27869;51.442;7.540;2023-05-10T09:56:12;11.70;;;3.30;;
42200;SDS011;27869;51.442;7.540;2023-05-10T09:58:39;11.27;;;3.08;;
42200;SDS011;27869;51.442;7.540;2023-05-10T10:01:10;9.85;;;2.67;;
42200;SDS011;27869;51.442;7.540;2023-05-10T10:03:42;10.32;;;2.85;;
42200;SDS011;27869;51.442;7.540;2023-05-10T10:06:09;10.80;;;3.15;;
42200;SDS011;27869;51.442;7.540;2023-05-10T10:08:36;11.85;;;3.42;;
42200;SDS011;27869;51.442;7.540;2023-05-10T10:11:03;11.90;;;3.55;;
42200;SDS011;27869;51.442;7.540;2023-05-10T10:13:30;9.43;;;3.10;;
42200;SDS011;27869;51.442;7.540;2023-05-10T10:15:57;10.70;;;3.20;;
42200;SDS011;27869;51.442;7.540;2023-05-10T10:18:24;10.50;;;3.10;;
42200;SDS011;27869;51.442;7.540;2023-05-10T10:20:55;9.85;;;3.00;;
42200;SDS011;27869;51.442;7.540;2023-05-10T10:23:23;9.35;;;2.45;;
42200;SDS011;27869;51.442;7.540;2023-05-10T10:25:49;11.00;;;2.85;;
42200;SDS011;27869;51.442;7.540;2023-05-10T10:28:21;12.02;;;3.55;;
42200;SDS011;27869;51.442;7.540;2023-05-10T10:30:52;9.95;;;2.90;;
42200;SDS011;27869;51.442;7.540;2023-05-10T10:33:30;11.10;;;3.40;;
42200;SDS011;27869;51.442;7.540;2023-05-10T10:36:06;12.73;;;3.53;;
42200;SDS011;27869;51.442;7.540;2023-05-10T10:38:37;13.88;;;4.15;;
42200;SDS011;27869;51.442;7.540;2023-05-10T10:41:27;13.35;;;3.45;;
42200;SDS011;27869;51.442;7.540;2023-05-10T10:46:59;13.18;;;4.00;;
42200;SDS011;27869;51.442;7.540;2023-05-10T10:49:34;12.05;;;3.58;;
42200;SDS011;27869;51.442;7.540;2023-05-10T10:52:21;13.50;;;3.60;;
42200;SDS011;27869;51.442;7.540;2023-05-10T10:54:53;11.45;;;3.35;;
42200;SDS011;27869;51.442;7.540;2023-05-10T10:57:25;11.75;;;3.65;;
42200;SDS011;27869;51.442;7.540;2023-05-10T11:03:03;13.85;;;4.28;;
42200;SDS011;27869;51.442;7.540;2023-05-10T11:08:10;14.00;;;4.72;;
42200;SDS011;27869;51.442;7.540;2023-05-10T11:10:49;13.85;;;5.10;;
42200;SDS011;27869;51.442;7.540;2023-05-10T11:13:21;14.95;;;5.45;;
42200;SDS011;27869;51.442;7.540;2023-05-10T11:15:54;18.40;;;6.53;;
42200;SDS011;27869;51.442;7.540;2023-05-10T11:18:24;18.35;;;7.25;;
42200;SDS011;27869;51.442;7.540;2023-05-10T11:20:52;21.35;;;7.80;;
42200;SDS011;27869;51.442;7.540;2023-05-10T11:23:28;18.45;;;7.90;;
42200;SDS011;27869;51.442;7.540;2023-05-10T11:25:56;18.23;;;7.53;;
42200;SDS011;27869;51.442;7.540;2023-05-10T11:28:26;17.77;;;7.32;;
42200;SDS011;27869;51.442;7.540;2023-05-10T11:30:54;20.48;;;7.97;;
42200;SDS011;27869;51.442;7.540;2023-05-10T11:33:21;20.60;;;7.57;;
42200;SDS011;27869;51.442;7.540;2023-05-10T11:35:48;17.80;;;6.75;;
42200;SDS011;27869;51.442;7.540;2023-05-10T11:38:15;17.27;;;6.95;;
42200;SDS011;27869;51.442;7.540;2023-05-10T11:40:43;17.45;;;6.80;;
42200;SDS011;27869;51.442;7.540;2023-05-10T11:43:10;16.63;;;5.85;;
42200;SDS011;27869;51.442;7.540;2023-05-10T11:45:37;14.60;;;5.05;;
42200;SDS011;27869;51.442;7.540;2023-05-10T11:48:06;15.00;;;5.40;;
42200;SDS011;27869;51.442;7.540;2023-05-10T11:50:33;13.32;;;5.00;;
42200;SDS011;27869;51.442;7.540;2023-05-10T11:53:00;14.18;;;4.88;;
42200;SDS011;27869;51.442;7.540;2023-05-10T11:55:27;13.40;;;4.28;;
42200;SDS011;27869;51.442;7.540;2023-05-10T11:58:00;13.18;;;4.60;;
42200;SDS011;27869;51.442;7.540;2023-05-10T12:00:27;14.38;;;4.75;;
42200;SDS011;27869;51.442;7.540;2023-05-10T12:02:55;14.57;;;5.03;;
42200;SDS011;27869;51.442;7.540;2023-05-10T12:05:22;13.55;;;4.63;;
42200;SDS011;27869;51.442;7.540;2023-05-10T12:07:49;13.93;;;4.88;;
42200;SDS011;27869;51.442;7.540;2023-05-10T12:10:17;15.80;;;5.55;;
42200;SDS011;27869;51.442;7.540;2023-05-10T12:12:52;15.45;;;6.38;;
42200;SDS011;27869;51.442;7.540;2023-05-10T12:15:21;16.80;;;6.95;;
42200;SDS011;27869;51.442;7.540;2023-05-10T12:17:49;16.08;;;7.15;;
42200;SDS011;27869;51.442;7.540;2023-05-10T12:20:17;16.55;;;6.72;;
42200;SDS011;27869;51.442;7.540;2023-05-10T12:22:45;15.80;;;6.30;;
42200;SDS011;27869;51.442;7.540;2023-05-10T12:25:16;15.82;;;5.90;;
42200;SDS011;27869;51.442;7.540;2023-05-10T12:27:54;17.88;;;7.20;;
42200;SDS011;27869;51.442;7.540;2023-05-10T12:30:24;15.25;;;7.22;;
42200;SDS011;27869;51.442;7.540;2023-05-10T12:32:52;18.17;;;7.72;;
42200;SDS011;27869;51.442;7.540;2023-05-10T12:35:20;16.15;;;7.50;;
42200;SDS011;27869;51.442;7.540;2023-05-10T12:37:49;16.60;;;6.97;;
42200;SDS011;27869;51.442;7.540;2023-05-10T12:40:16;16.35;;;7.05;;
42200;SDS011;27869;51.442;7.540;2023-05-10T12:42:43;18.98;;;7.70;;
42200;SDS011;27869;51.442;7.540;2023-05-10T12:45:10;15.88;;;6.32;;
42200;SDS011;27869;51.442;7.540;2023-05-10T12:47:39;15.55;;;6.88;;
42200;SDS011;27869;51.442;7.540;2023-05-10T12:50:06;15.10;;;6.47;;
42200;SDS011;27869;51.442;7.540;2023-05-10T12:52:34;15.70;;;6.40;;
42200;SDS011;27869;51.442;7.540;2023-05-10T12:55:01;14.60;;;5.50;;
42200;SDS011;27869;51.442;7.540;2023-05-10T12:57:28;15.27;;;5.53;;
42200;SDS011;27869;51.442;7.540;2023-05-10T12:59:55;15.07;;;6.28;;
42200;SDS011;27869;51.442;7.540;2023-05-10T13:02:22;15.57;;;5.50;;
42200;SDS011;27869;51.442;7.540;2023-05-10T13:04:51;13.77;;;4.75;;
42200;SDS011;27869;51.442;7.540;2023-05-10T13:07:17;13.60;;;5.30;;
42200;SDS011;27869;51.442;7.540;2023-05-10T13:09:45;14.68;;;5.60;;
42200;SDS011;27869;51.442;7.540;2023-05-10T13:12:12;17.88;;;5.70;;
42200;SDS011;27869;51.442;7.540;2023-05-10T13:14:38;13.95;;;6.03;;
42200;SDS011;27869;51.442;7.540;2023-05-10T13:17:06;15.35;;;5.82;;
42200;SDS011;27869;51.442;7.540;2023-05-10T13:19:33;15.40;;;6.30;;
42200;SDS011;27869;51.442;7.540;2023-05-10T13:22:02;15.70;;;6.43;;
42200;SDS011;27869;51.442;7.540;2023-05-10T13:24:29;15.85;;;6.45;;
42200;SDS011;27869;51.442;7.540;2023-05-10T13:26:56;14.93;;;6.07;;
42200;SDS011;27869;51.442;7.540;2023-05-10T13:29:25;16.60;;;6.80;;
42200;SDS011;27869;51.442;7.540;2023-05-10T13:31:52;14.93;;;6.32;;
42200;SDS011;27869;51.442;7.540;2023-05-10T13:34:19;15.57;;;6.30;;
42200;SDS011;27869;51.442;7.540;2023-05-10T13:36:46;15.23;;;5.10;;
42200;SDS011;27869;51.442;7.540;2023-05-10T13:39:15;13.15;;;5.03;;
42200;SDS011;27869;51.442;7.540;2023-05-10T13:41:42;14.30;;;5.03;;
42200;SDS011;27869;51.442;7.540;2023-05-10T13:44:11;14.77;;;5.13;;
42200;SDS011;27869;51.442;7.540;2023-05-10T13:46:38;14.15;;;4.93;;
42200;SDS011;27869;51.442;7.540;2023-05-10T13:49:05;15.07;;;5.07;;
42200;SDS011;27869;51.442;7.540;2023-05-10T13:51:33;12.57;;;4.40;;
42200;SDS011;27869;51.442;7.540;2023-05-10T13:54:00;14.40;;;4.38;;
42200;SDS011;27869;51.442;7.540;2023-05-10T13:56:29;12.60;;;4.47;;
42200;SDS011;27869;51.442;7.540;2023-05-10T13:58:56;12.95;;;4.72;;
42200;SDS011;27869;51.442;7.540;2023-05-10T14:01:23;14.07;;;4.78;;
42200;SDS011;27869;51.442;7.540;2023-05-10T14:03:50;10.77;;;4.75;;
42200;SDS011;27869;51.442;7.540;2023-05-10T14:06:16;13.88;;;4.85;;
42200;SDS011;27869;51.442;7.540;2023-05-10T14:08:43;13.90;;;4.75;;
42200;SDS011;27869;51.442;7.540;2023-05-10T14:11:10;13.52;;;4.57;;
42200;SDS011;27869;51.442;7.540;2023-05-10T14:13:39;13.02;;;4.57;;
42200;SDS011;27869;51.442;7.540;2023-05-10T14:16:06;13.15;;;4.32;;
42200;SDS011;27869;51.442;7.540;2023-05-10T14:18:33;12.85;;;4.60;;
42200;SDS011;27869;51.442;7.540;2023-05-10T14:21:01;12.88;;;4.55;;
42200;SDS011;27869;51.442;7.540;2023-05-10T14:23:28;12.93;;;4.57;;
42200;SDS011;27869;51.442;7.540;2023-05-10T14:25:55;13.15;;;4.90;;
42200;SDS011;27869;51.442;7.540;2023-05-10T14:28:22;14.00;;;5.13;;
42200;SDS011;27869;51.442;7.540;2023-05-10T14:30:51;13.98;;;4.63;;
42200;SDS011;27869;51.442;7.540;2023-05-10T14:33:18;19.35;;;5.20;;
42200;SDS011;27869;51.442;7.540;2023-05-10T14:35:45;14.52;;;5.22;;
42200;SDS011;27869;51.442;7.540;2023-05-10T14:38:12;14.70;;;6.20;;
42200;SDS011;27869;51.442;7.540;2023-05-10T14:40:40;16.83;;;6.70;;
42200;SDS011;27869;51.442;7.540;2023-05-10T14:43:07;15.25;;;4.65;;
42200;SDS011;27869;51.442;7.540;2023-05-10T14:45:34;12.05;;;3.80;;
42200;SDS011;27869;51.442;7.540;2023-05-10T14:48:02;12.30;;;3.65;;
42200;SDS011;27869;51.442;7.540;2023-05-10T14:50:29;11.95;;;3.83;;
42200;SDS011;27869;51.442;7.540;2023-05-10T14:52:56;12.82;;;4.13;;
42200;SDS011;27869;51.442;7.540;2023-05-10T14:55:24;11.30;;;3.97;;
42200;SDS011;27869;51.442;7.540;2023-05-10T14:57:51;11.40;;;4.05;;
42200;SDS011;27869;51.442;7.540;2023-05-10T15:00:18;10.57;;;3.63;;
42200;SDS011;27869;51.442;7.540;2023-05-10T15:02:46;9.90;;;2.97;;